sensor_id;sensor_type;location;lat;lon;timestamp;P1;durP1;ratioP1;P2;durP2;ratioP2
1691;SDS011;843;52.054;8.552;2023-03-01T00:01:33;18.90;;;11.40;;
1691;SDS011;843;52.054;8.552;2023-03-01T00:03:59;15.73;;;12.20;;
1691;SDS011;843;52.054;8.552;2023-03-01T00:06:26;12.30;;;11.00;;
1691;SDS011;843;52.054;8.552;2023-03-01T00:08:53;14.63;;;11.60;;
1691;SDS011;843;52.054;8.552;2023-03-01T00:11:21;15.17;;;11.80;;
1691;SDS011;843;52.054;8.552;2023-03-01T00:13:50;16.10;;;11.33;;
1691;SDS011;843;52.054;8.552;2023-03-01T00:16:18;14.57;;;11.07;;
1691;SDS011;843;52.054;8.552;2023-03-01T00:18:47;13.60;;;10.53;;
1691;SDS011;843;52.054;8.552;2023-03-01T00:21:13;11.60;;;10.23;;
1691;SDS011;843;52.054;8.552;2023-03-01T00:23:40;17.17;;;12.30;;
1691;SDS011;843;52.054;8.552;2023-03-01T00:26:08;16.57;;;11.43;;
1691;SDS011;843;52.054;8.552;2023-03-01T00:28:38;14.60;;;11.00;;
1691;SDS011;843;52.054;8.552;2023-03-01T00:31:05;17.10;;;10.67;;
1691;SDS011;843;52.054;8.552;2023-03-01T00:33:32;15.90;;;11.13;;
1691;SDS011;843;52.054;8.552;2023-03-01T00:35:59;15.90;;;11.15;;
1691;SDS011;843;52.054;8.552;2023-03-01T00:38:26;17.07;;;11.00;;
1691;SDS011;843;52.054;8.552;2023-03-01T00:40:53;14.00;;;10.73;;
1691;SDS011;843;52.054;8.552;2023-03-01T00:43:20;14.87;;;10.30;;
1691;SDS011;843;52.054;8.552;2023-03-01T00:45:48;18.15;;;10.25;;
1691;SDS011;843;52.054;8.552;2023-03-01T00:48:14;13.93;;;9.70;;
1691;SDS011;843;52.054;8.552;2023-03-01T00:50:41;11.87;;;9.93;;
1691;SDS011;843;52.054;8.552;2023-03-01T00:53:08;13.90;;;10.03;;
1691;SDS011;843;52.054;8.552;2023-03-01T00:55:35;15.03;;;10.63;;
1691;SDS011;843;52.054;8.552;2023-03-01T00:58:02;17.08;;;10.23;;
1691;SDS011;843;52.054;8.552;2023-03-01T01:00:29;15.83;;;10.07;;
1691;SDS011;843;52.054;8.552;2023-03-01T01:02:57;14.50;;;10.00;;
1691;SDS011;843;52.054;8.552;2023-03-01T01:05:23;12.50;;;9.57;;
1691;SDS011;843;52.054;8.552;2023-03-01T01:07:50;12.70;;;9.30;;
1691;SDS011;843;52.054;8.552;2023-03-01T01:10:16;14.68;;;9.52;;
1691;SDS011;843;52.054;8.552;2023-03-01T01:12:44;15.97;;;9.93;;
1691;SDS011;843;52.054;8.552;2023-03-01T01:15:10;13.60;;;10.57;;
1691;SDS011;843;52.054;8.552;2023-03-01T01:17:39;16.23;;;10.17;;
1691;SDS011;843;52.054;8.552;2023-03-01T01:20:08;11.65;;;9.27;;
1691;SDS011;843;52.054;8.552;2023-03-01T01:22:36;12.30;;;8.97;;
1691;SDS011;843;52.054;8.552;2023-03-01T01:25:02;12.50;;;10.03;;
1691;SDS011;843;52.054;8.552;2023-03-01T01:27:29;13.03;;;9.87;;
1691;SDS011;843;52.054;8.552;2023-03-01T01:29:56;14.00;;;9.43;;
1691;SDS011;843;52.054;8.552;2023-03-01T01:32:22;13.67;;;10.33;;
1691;SDS011;843;52.054;8.552;2023-03-01T01:34:49;12.47;;;10.07;;
1691;SDS011;843;52.054;8.552;2023-03-01T01:37:17;12.18;;;10.02;;
1691;SDS011;843;52.054;8.552;2023-03-01T01:39:44;13.52;;;9.50;;
1691;SDS011;843;52.054;8.552;2023-03-01T01:42:11;18.63;;;11.40;;
1691;SDS011;843;52.054;8.552;2023-03-01T01:44:42;13.53;;;10.07;;
1691;SDS011;843;52.054;8.552;2023-03-01T01:47:12;14.33;;;9.87;;
1691;SDS011;843;52.054;8.552;2023-03-01T01:49:41;13.10;;;10.07;;
1691;SDS011;843;52.054;8.552;2023-03-01T01:52:11;11.27;;;9.70;;
1691;SDS011;843;52.054;8.552;2023-03-01T01:54:43;14.10;;;10.00;;
1691;SDS011;843;52.054;8.552;2023-03-01T01:57:12;12.03;;;9.50;;
1691;SDS011;843;52.054;8.552;2023-03-01T01:59:41;15.57;;;9.37;;
1691;SDS011;843;52.054;8.552;2023-03-01T02:02:10;14.90;;;10.88;;
1691;SDS011;843;52.054;8.552;2023-03-01T02:04:38;17.83;;;11.10;;
1691;SDS011;843;52.054;8.552;2023-03-01T02:07:07;14.93;;;9.70;;
1691;SDS011;843;52.054;8.552;2023-03-01T02:09:39;11.23;;;10.03;;
1691;SDS011;843;52.054;8.552;2023-03-01T02:12:08;14.30;;;10.17;;
1691;SDS011;843;52.054;8.552;2023-03-01T02:14:35;11.15;;;9.52;;
1691;SDS011;843;52.054;8.552;2023-03-01T02:17:02;10.57;;;9.23;;
1691;SDS011;843;52.054;8.552;2023-03-01T02:19:32;12.87;;;10.67;;
1691;SDS011;843;52.054;8.552;2023-03-01T02:22:10;11.18;;;9.35;;
1691;SDS011;843;52.054;8.552;2023-03-01T02:24:44;14.10;;;9.73;;
1691;SDS011;843;52.054;8.552;2023-03-01T02:27:20;13.97;;;10.23;;
1691;SDS011;843;52.054;8.552;2023-03-01T02:29:51;12.70;;;10.13;;
1691;SDS011;843;52.054;8.552;2023-03-01T02:32:18;14.10;;;10.27;;
1691;SDS011;843;52.054;8.552;2023-03-01T02:34:50;11.33;;;9.93;;
1691;SDS011;843;52.054;8.552;2023-03-01T02:37:17;14.17;;;9.80;;
1691;SDS011;843;52.054;8.552;2023-03-01T02:39:46;11.50;;;9.88;;
1691;SDS011;843;52.054;8.552;2023-03-01T02:42:15;11.82;;;9.75;;
1691;SDS011;843;52.054;8.552;2023-03-01T02:44:43;13.45;;;10.80;;
1691;SDS011;843;52.054;8.552;2023-03-01T02:47:11;13.30;;;10.13;;
1691;SDS011;843;52.054;8.552;2023-03-01T02:49:38;12.38;;;9.93;;
1691;SDS011;843;52.054;8.552;2023-03-01T02:52:07;14.30;;;9.85;;
1691;SDS011;843;52.054;8.552;2023-03-01T02:54:44;12.90;;;10.60;;
1691;SDS011;843;52.054;8.552;2023-03-01T02:57:15;13.13;;;9.98;;
1691;SDS011;843;52.054;8.552;2023-03-01T02:59:42;11.00;;;8.70;;
1691;SDS011;843;52.054;8.552;2023-03-01T03:02:19;14.32;;;9.20;;
1691;SDS011;843;52.054;8.552;2023-03-01T03:05:00;12.07;;;9.60;;
1691;SDS011;843;52.054;8.552;2023-03-01T03:07:28;14.90;;;10.07;;
1691;SDS011;843;52.054;8.552;2023-03-01T03:09:55;15.90;;;10.55;;
1691;SDS011;843;52.054;8.552;2023-03-01T03:12:22;15.40;;;10.63;;
1691;SDS011;843;52.054;8.552;2023-03-01T03:14:48;14.15;;;10.73;;
1691;SDS011;843;52.054;8.552;2023-03-01T03:17:15;16.55;;;10.60;;
1691;SDS011;843;52.054;8.552;2023-03-01T03:19:43;14.85;;;10.20;;
1691;SDS011;843;52.054;8.552;2023-03-01T03:22:10;16.17;;;11.63;;
1691;SDS011;843;52.054;8.552;2023-03-01T03:24:37;14.30;;;10.60;;
1691;SDS011;843;52.054;8.552;2023-03-01T03:27:04;18.33;;;10.90;;
1691;SDS011;843;52.054;8.552;2023-03-01T03:29:31;11.82;;;9.13;;
1691;SDS011;843;52.054;8.552;2023-03-01T03:31:58;12.75;;;9.80;;
1691;SDS011;843;52.054;8.552;2023-03-01T03:34:25;13.50;;;10.65;;
1691;SDS011;843;52.054;8.552;2023-03-01T03:36:54;14.65;;;10.60;;
1691;SDS011;843;52.054;8.552;2023-03-01T03:39:24;18.27;;;10.75;;
1691;SDS011;843;52.054;8.552;2023-03-01T03:41:51;14.13;;;10.32;;
1691;SDS011;843;52.054;8.552;2023-03-01T03:44:18;13.52;;;10.65;;
1691;SDS011;843;52.054;8.552;2023-03-01T03:46:44;14.98;;;10.57;;
1691;SDS011;843;52.054;8.552;2023-03-01T03:49:11;13.82;;;10.73;;
1691;SDS011;843;52.054;8.552;2023-03-01T03:51:38;14.18;;;10.02;;
1691;SDS011;843;52.054;8.552;2023-03-01T03:54:06;12.57;;;9.93;;
1691;SDS011;843;52.054;8.552;2023-03-01T03:56:32;17.17;;;11.55;;
1691;SDS011;843;52.054;8.552;2023-03-01T03:59:00;15.60;;;11.45;;
1691;SDS011;843;52.054;8.552;2023-03-01T04:01:26;14.95;;;10.75;;
1691;SDS011;843;52.054;8.552;2023-03-01T04:03:53;17.35;;;10.90;;
1691;SDS011;843;52.054;8.552;2023-03-01T04:06:20;15.40;;;11.23;;
1691;SDS011;843;52.054;8.552;2023-03-01T04:08:47;15.07;;;10.85;;
1691;SDS011;843;52.054;8.552;2023-03-01T04:11:19;15.32;;;11.00;;
1691;SDS011;843;52.054;8.552;2023-03-01T04:13:55;12.80;;;10.32;;
1691;SDS011;843;52.054;8.552;2023-03-01T04:16:23;12.80;;;10.00;;
1691;SDS011;843;52.054;8.552;2023-03-01T04:18:49;13.50;;;10.65;;
1691;SDS011;843;52.054;8.552;2023-03-01T04:21:17;13.02;;;10.15;;
1691;SDS011;843;52.054;8.552;2023-03-01T04:23:45;13.00;;;10.63;;
1691;SDS011;843;52.054;8.552;2023-03-01T04:26:12;13.30;;;10.27;;
1691;SDS011;843;52.054;8.552;2023-03-01T04:28:41;18.05;;;10.68;;
1691;SDS011;843;52.054;8.552;2023-03-01T04:31:11;14.73;;;11.60;;
1691;SDS011;843;52.054;8.552;2023-03-01T04:33:42;13.57;;;10.25;;
1691;SDS011;843;52.054;8.552;2023-03-01T04:36:10;12.30;;;9.38;;
1691;SDS011;843;52.054;8.552;2023-03-01T04:38:38;12.50;;;10.02;;
1691;SDS011;843;52.054;8.552;2023-03-01T04:41:05;15.75;;;11.35;;
1691;SDS011;843;52.054;8.552;2023-03-01T04:43:32;15.40;;;10.90;;
1691;SDS011;843;52.054;8.552;2023-03-01T04:46:04;16.35;;;11.10;;
1691;SDS011;843;52.054;8.552;2023-03-01T04:48:34;14.95;;;10.82;;
1691;SDS011;843;52.054;8.552;2023-03-01T04:51:01;14.27;;;10.73;;
1691;SDS011;843;52.054;8.552;2023-03-01T04:53:27;15.95;;;11.02;;
1691;SDS011;843;52.054;8.552;2023-03-01T04:55:54;14.35;;;10.40;;
1691;SDS011;843;52.054;8.552;2023-03-01T04:58:22;15.00;;;11.10;;
1691;SDS011;843;52.054;8.552;2023-03-01T05:00:48;18.33;;;11.82;;
1691;SDS011;843;52.054;8.552;2023-03-01T05:03:16;16.58;;;11.20;;
1691;SDS011;843;52.054;8.552;2023-03-01T05:05:44;12.25;;;10.95;;
1691;SDS011;843;52.054;8.552;2023-03-01T05:08:12;13.55;;;11.50;;
1691;SDS011;843;52.054;8.552;2023-03-01T05:10:42;15.48;;;11.02;;
1691;SDS011;843;52.054;8.552;2023-03-01T05:13:09;18.13;;;11.25;;
1691;SDS011;843;52.054;8.552;2023-03-01T05:15:36;14.38;;;10.75;;
1691;SDS011;843;52.054;8.552;2023-03-01T05:18:03;11.93;;;10.60;;
1691;SDS011;843;52.054;8.552;2023-03-01T05:20:33;16.92;;;11.45;;
1691;SDS011;843;52.054;8.552;2023-03-01T05:23:01;16.17;;;11.23;;
1691;SDS011;843;52.054;8.552;2023-03-01T05:25:30;15.90;;;10.15;;
1691;SDS011;843;52.054;8.552;2023-03-01T05:27:58;15.15;;;10.93;;
1691;SDS011;843;52.054;8.552;2023-03-01T05:30:29;13.75;;;10.65;;
1691;SDS011;843;52.054;8.552;2023-03-01T05:32:56;15.75;;;11.13;;
1691;SDS011;843;52.054;8.552;2023-03-01T05:35:22;15.30;;;11.05;;
1691;SDS011;843;52.054;8.552;2023-03-01T05:37:51;13.90;;;10.77;;
1691;SDS011;843;52.054;8.552;2023-03-01T05:40:18;14.65;;;10.95;;
1691;SDS011;843;52.054;8.552;2023-03-01T05:42:46;15.30;;;11.07;;
1691;SDS011;843;52.054;8.552;2023-03-01T05:45:15;16.17;;;12.32;;
1691;SDS011;843;52.054;8.552;2023-03-01T05:47:43;15.10;;;11.40;;
1691;SDS011;843;52.054;8.552;2023-03-01T05:50:11;17.58;;;12.73;;
1691;SDS011;843;52.054;8.552;2023-03-01T05:52:39;14.50;;;11.30;;
1691;SDS011;843;52.054;8.552;2023-03-01T05:55:08;15.18;;;11.35;;
1691;SDS011;843;52.054;8.552;2023-03-01T05:57:35;20.30;;;12.50;;
1691;SDS011;843;52.054;8.552;2023-03-01T06:00:01;16.98;;;12.18;;
1691;SDS011;843;52.054;8.552;2023-03-01T06:02:28;16.40;;;11.90;;
1691;SDS011;843;52.054;8.552;2023-03-01T06:04:55;14.15;;;11.55;;
1691;SDS011;843;52.054;8.552;2023-03-01T06:07:22;17.55;;;13.10;;
1691;SDS011;843;52.054;8.552;2023-03-01T06:09:48;15.73;;;13.15;;
1691;SDS011;843;52.054;8.552;2023-03-01T06:12:16;18.27;;;13.95;;
1691;SDS011;843;52.054;8.552;2023-03-01T06:14:44;19.92;;;11.82;;
1691;SDS011;843;52.054;8.552;2023-03-01T06:17:11;17.00;;;12.13;;
1691;SDS011;843;52.054;8.552;2023-03-01T06:19:38;17.25;;;12.65;;
1691;SDS011;843;52.054;8.552;2023-03-01T06:22:04;17.38;;;13.32;;
1691;SDS011;843;52.054;8.552;2023-03-01T06:24:32;18.45;;;13.27;;
1691;SDS011;843;52.054;8.552;2023-03-01T06:26:58;21.17;;;15.43;;
1691;SDS011;843;52.054;8.552;2023-03-01T06:29:26;20.23;;;14.52;;
1691;SDS011;843;52.054;8.552;2023-03-01T06:31:53;13.98;;;11.90;;
1691;SDS011;843;52.054;8.552;2023-03-01T06:34:20;15.38;;;12.65;;
1691;SDS011;843;52.054;8.552;2023-03-01T06:36:46;17.10;;;12.57;;
1691;SDS011;843;52.054;8.552;2023-03-01T06:39:13;15.32;;;12.73;;
1691;SDS011;843;52.054;8.552;2023-03-01T06:41:42;22.63;;;14.52;;
1691;SDS011;843;52.054;8.552;2023-03-01T06:44:09;16.63;;;14.25;;
1691;SDS011;843;52.054;8.552;2023-03-01T06:46:37;21.63;;;14.60;;
1691;SDS011;843;52.054;8.552;2023-03-01T06:49:05;22.30;;;14.57;;
1691;SDS011;843;52.054;8.552;2023-03-01T06:51:34;19.77;;;14.63;;
1691;SDS011;843;52.054;8.552;2023-03-01T06:54:01;16.60;;;13.23;;
1691;SDS011;843;52.054;8.552;2023-03-01T06:56:28;15.10;;;12.70;;
1691;SDS011;843;52.054;8.552;2023-03-01T06:58:54;17.80;;;12.80;;
1691;SDS011;843;52.054;8.552;2023-03-01T07:01:21;13.17;;;11.70;;
1691;SDS011;843;52.054;8.552;2023-03-01T07:03:49;16.43;;;12.10;;
1691;SDS011;843;52.054;8.552;2023-03-01T07:06:15;18.30;;;12.53;;
1691;SDS011;843;52.054;8.552;2023-03-01T07:08:42;16.20;;;11.97;;
1691;SDS011;843;52.054;8.552;2023-03-01T07:11:09;21.20;;;13.80;;
1691;SDS011;843;52.054;8.552;2023-03-01T07:13:36;14.20;;;11.63;;
1691;SDS011;843;52.054;8.552;2023-03-01T07:16:02;15.10;;;12.27;;
1691;SDS011;843;52.054;8.552;2023-03-01T07:18:29;16.07;;;12.50;;
1691;SDS011;843;52.054;8.552;2023-03-01T07:20:57;14.30;;;11.63;;
1691;SDS011;843;52.054;8.552;2023-03-01T07:23:24;14.70;;;11.93;;
1691;SDS011;843;52.054;8.552;2023-03-01T07:25:51;14.73;;;12.13;;
1691;SDS011;843;52.054;8.552;2023-03-01T07:28:18;14.80;;;11.70;;
1691;SDS011;843;52.054;8.552;2023-03-01T07:30:45;19.03;;;12.40;;
1691;SDS011;843;52.054;8.552;2023-03-01T07:33:12;17.17;;;12.47;;
1691;SDS011;843;52.054;8.552;2023-03-01T07:35:39;16.83;;;12.27;;
1691;SDS011;843;52.054;8.552;2023-03-01T07:38:07;12.57;;;10.77;;
1691;SDS011;843;52.054;8.552;2023-03-01T07:40:33;21.60;;;12.33;;
1691;SDS011;843;52.054;8.552;2023-03-01T07:43:00;13.27;;;10.87;;
1691;SDS011;843;52.054;8.552;2023-03-01T07:45:27;12.73;;;11.23;;
1691;SDS011;843;52.054;8.552;2023-03-01T07:47:54;13.60;;;11.83;;
1691;SDS011;843;52.054;8.552;2023-03-01T07:50:21;13.30;;;11.97;;
1691;SDS011;843;52.054;8.552;2023-03-01T07:52:49;17.00;;;13.03;;
1691;SDS011;843;52.054;8.552;2023-03-01T07:55:17;15.77;;;12.63;;
1691;SDS011;843;52.054;8.552;2023-03-01T07:57:44;17.10;;;12.20;;
1691;SDS011;843;52.054;8.552;2023-03-01T08:00:11;14.33;;;11.40;;
1691;SDS011;843;52.054;8.552;2023-03-01T08:02:39;13.67;;;11.77;;
1691;SDS011;843;52.054;8.552;2023-03-01T08:05:07;13.90;;;12.00;;
1691;SDS011;843;52.054;8.552;2023-03-01T08:07:34;13.50;;;11.60;;
1691;SDS011;843;52.054;8.552;2023-03-01T08:10:00;15.07;;;12.13;;
1691;SDS011;843;52.054;8.552;2023-03-01T08:12:28;15.87;;;12.83;;
1691;SDS011;843;52.054;8.552;2023-03-01T08:14:55;15.60;;;12.03;;
1691;SDS011;843;52.054;8.552;2023-03-01T08:17:23;15.57;;;11.13;;
1691;SDS011;843;52.054;8.552;2023-03-01T08:19:49;16.50;;;11.73;;
1691;SDS011;843;52.054;8.552;2023-03-01T08:22:16;13.07;;;10.50;;
1691;SDS011;843;52.054;8.552;2023-03-01T08:24:43;15.50;;;11.27;;
1691;SDS011;843;52.054;8.552;2023-03-01T08:27:10;14.83;;;10.73;;
1691;SDS011;843;52.054;8.552;2023-03-01T08:29:38;14.40;;;12.07;;
1691;SDS011;843;52.054;8.552;2023-03-01T08:32:05;12.63;;;10.60;;
1691;SDS011;843;52.054;8.552;2023-03-01T08:34:31;11.70;;;10.50;;
1691;SDS011;843;52.054;8.552;2023-03-01T08:37:00;12.63;;;11.33;;
1691;SDS011;843;52.054;8.552;2023-03-01T08:39:27;11.07;;;9.87;;
1691;SDS011;843;52.054;8.552;2023-03-01T08:41:54;12.17;;;10.97;;
1691;SDS011;843;52.054;8.552;2023-03-01T08:44:21;13.23;;;11.30;;
1691;SDS011;843;52.054;8.552;2023-03-01T08:46:49;18.13;;;11.03;;
1691;SDS011;843;52.054;8.552;2023-03-01T08:49:18;12.23;;;10.20;;
1691;SDS011;843;52.054;8.552;2023-03-01T08:51:46;12.77;;;10.93;;
1691;SDS011;843;52.054;8.552;2023-03-01T08:54:13;13.90;;;10.13;;
1691;SDS011;843;52.054;8.552;2023-03-01T08:56:41;11.77;;;10.60;;
1691;SDS011;843;52.054;8.552;2023-03-01T08:59:08;13.77;;;10.83;;
1691;SDS011;843;52.054;8.552;2023-03-01T09:01:36;13.33;;;11.27;;
1691;SDS011;843;52.054;8.552;2023-03-01T09:04:04;11.67;;;10.47;;
1691;SDS011;843;52.054;8.552;2023-03-01T09:06:31;11.87;;;10.63;;
1691;SDS011;843;52.054;8.552;2023-03-01T09:08:59;10.87;;;9.77;;
1691;SDS011;843;52.054;8.552;2023-03-01T09:11:26;13.00;;;9.80;;
1691;SDS011;843;52.054;8.552;2023-03-01T09:13:54;11.47;;;10.37;;
1691;SDS011;843;52.054;8.552;2023-03-01T09:16:21;14.60;;;12.03;;
1691;SDS011;843;52.054;8.552;2023-03-01T09:18:48;14.70;;;11.23;;
1691;SDS011;843;52.054;8.552;2023-03-01T09:21:18;13.20;;;10.83;;
1691;SDS011;843;52.054;8.552;2023-03-01T09:23:46;13.43;;;11.70;;
1691;SDS011;843;52.054;8.552;2023-03-01T09:26:14;14.90;;;10.60;;
1691;SDS011;843;52.054;8.552;2023-03-01T09:28:44;17.73;;;12.23;;
1691;SDS011;843;52.054;8.552;2023-03-01T09:31:11;16.17;;;10.80;;
1691;SDS011;843;52.054;8.552;2023-03-01T09:33:39;13.47;;;10.83;;
1691;SDS011;843;52.054;8.552;2023-03-01T09:36:07;14.90;;;10.50;;
1691;SDS011;843;52.054;8.552;2023-03-01T09:38:38;14.10;;;10.50;;
1691;SDS011;843;52.054;8.552;2023-03-01T09:41:09;13.03;;;10.90;;
1691;SDS011;843;52.054;8.552;2023-03-01T09:43:40;15.63;;;11.13;;
1691;SDS011;843;52.054;8.552;2023-03-01T09:46:09;13.63;;;11.10;;
1691;SDS011;843;52.054;8.552;2023-03-01T09:48:41;18.17;;;10.50;;
1691;SDS011;843;52.054;8.552;2023-03-01T09:51:12;46.73;;;23.27;;
1691;SDS011;843;52.054;8.552;2023-03-01T09:53:42;34.60;;;18.00;;
1691;SDS011;843;52.054;8.552;2023-03-01T09:56:11;15.83;;;10.70;;
1691;SDS011;843;52.054;8.552;2023-03-01T09:58:46;23.53;;;11.97;;
1691;SDS011;843;52.054;8.552;2023-03-01T10:01:23;37.83;;;18.30;;
1691;SDS011;843;52.054;8.552;2023-03-01T10:04:16;11.30;;;8.80;;
1691;SDS011;843;52.054;8.552;2023-03-01T10:07:01;17.73;;;9.60;;
1691;SDS011;843;52.054;8.552;2023-03-01T10:09:40;13.53;;;9.20;;
1691;SDS011;843;52.054;8.552;2023-03-01T10:12:09;11.73;;;9.07;;
1691;SDS011;843;52.054;8.552;2023-03-01T10:14:38;14.30;;;8.37;;
1691;SDS011;843;52.054;8.552;2023-03-01T10:17:08;14.33;;;9.63;;
1691;SDS011;843;52.054;8.552;2023-03-01T10:19:40;13.50;;;8.80;;
1691;SDS011;843;52.054;8.552;2023-03-01T10:22:10;12.13;;;8.50;;
1691;SDS011;843;52.054;8.552;2023-03-01T10:24:42;13.00;;;7.90;;
1691;SDS011;843;52.054;8.552;2023-03-01T10:27:11;12.73;;;7.90;;
1691;SDS011;843;52.054;8.552;2023-03-01T10:29:43;10.20;;;7.83;;
1691;SDS011;843;52.054;8.552;2023-03-01T10:32:12;11.00;;;8.27;;
1691;SDS011;843;52.054;8.552;2023-03-01T10:34:39;11.50;;;8.10;;
1691;SDS011;843;52.054;8.552;2023-03-01T10:37:10;11.33;;;7.93;;
1691;SDS011;843;52.054;8.552;2023-03-01T10:42:33;10.43;;;7.30;;
1691;SDS011;843;52.054;8.552;2023-03-01T10:45:14;10.43;;;7.20;;
1691;SDS011;843;52.054;8.552;2023-03-01T10:47:42;14.00;;;8.50;;
1691;SDS011;843;52.054;8.552;2023-03-01T10:50:17;12.10;;;8.00;;
1691;SDS011;843;52.054;8.552;2023-03-01T10:52:55;11.13;;;7.53;;
1691;SDS011;843;52.054;8.552;2023-03-01T10:55:24;10.40;;;7.27;;
1691;SDS011;843;52.054;8.552;2023-03-01T10:58:07;11.70;;;6.60;;
1691;SDS011;843;52.054;8.552;2023-03-01T11:00:47;9.40;;;7.10;;
1691;SDS011;843;52.054;8.552;2023-03-01T11:03:17;7.90;;;6.50;;
1691;SDS011;843;52.054;8.552;2023-03-01T11:05:56;9.47;;;6.70;;
1691;SDS011;843;52.054;8.552;2023-03-01T11:08:39;12.17;;;7.50;;
1691;SDS011;843;52.054;8.552;2023-03-01T11:11:16;9.20;;;7.10;;
1691;SDS011;843;52.054;8.552;2023-03-01T11:13:56;10.70;;;6.90;;
1691;SDS011;843;52.054;8.552;2023-03-01T11:16:28;9.87;;;7.37;;
1691;SDS011;843;52.054;8.552;2023-03-01T11:18:58;8.63;;;6.70;;
1691;SDS011;843;52.054;8.552;2023-03-01T11:21:28;8.20;;;6.43;;
1691;SDS011;843;52.054;8.552;2023-03-01T11:23:55;8.87;;;6.50;;
1691;SDS011;843;52.054;8.552;2023-03-01T11:26:23;7.43;;;6.20;;
1691;SDS011;843;52.054;8.552;2023-03-01T11:28:51;10.20;;;6.00;;
1691;SDS011;843;52.054;8.552;2023-03-01T11:31:21;9.40;;;6.57;;
1691;SDS011;843;52.054;8.552;2023-03-01T11:33:50;7.67;;;5.37;;
1691;SDS011;843;52.054;8.552;2023-03-01T11:36:24;10.70;;;6.10;;
1691;SDS011;843;52.054;8.552;2023-03-01T11:38:55;7.67;;;5.70;;
1691;SDS011;843;52.054;8.552;2023-03-01T11:41:23;9.53;;;6.53;;
1691;SDS011;843;52.054;8.552;2023-03-01T11:43:52;24.67;;;12.23;;
1691;SDS011;843;52.054;8.552;2023-03-01T11:49:41;8.23;;;5.60;;
1691;SDS011;843;52.054;8.552;2023-03-01T11:52:21;9.70;;;5.77;;
1691;SDS011;843;52.054;8.552;2023-03-01T11:54:58;10.80;;;6.57;;
1691;SDS011;843;52.054;8.552;2023-03-01T11:57:45;17.40;;;11.07;;
1691;SDS011;843;52.054;8.552;2023-03-01T12:00:25;9.10;;;6.50;;
1691;SDS011;843;52.054;8.552;2023-03-01T12:03:19;8.07;;;5.83;;
1691;SDS011;843;52.054;8.552;2023-03-01T12:05:53;7.83;;;6.73;;
1691;SDS011;843;52.054;8.552;2023-03-01T12:08:30;10.37;;;7.43;;
1691;SDS011;843;52.054;8.552;2023-03-01T12:11:02;7.70;;;5.47;;
1691;SDS011;843;52.054;8.552;2023-03-01T12:13:39;6.53;;;5.87;;
1691;SDS011;843;52.054;8.552;2023-03-01T12:16:15;7.30;;;6.23;;
1691;SDS011;843;52.054;8.552;2023-03-01T12:21:51;11.90;;;6.00;;
1691;SDS011;843;52.054;8.552;2023-03-01T12:24:33;6.87;;;5.73;;
1691;SDS011;843;52.054;8.552;2023-03-01T12:27:15;7.00;;;5.80;;
1691;SDS011;843;52.054;8.552;2023-03-01T12:29:50;7.83;;;5.30;;
1691;SDS011;843;52.054;8.552;2023-03-01T12:32:25;8.67;;;4.77;;
1691;SDS011;843;52.054;8.552;2023-03-01T12:35:04;6.47;;;5.20;;
1691;SDS011;843;52.054;8.552;2023-03-01T12:37:40;8.33;;;6.13;;
1691;SDS011;843;52.054;8.552;2023-03-01T12:40:19;8.50;;;4.87;;
1691;SDS011;843;52.054;8.552;2023-03-01T12:42:54;7.27;;;6.00;;
1691;SDS011;843;52.054;8.552;2023-03-01T12:45:31;6.97;;;4.80;;
1691;SDS011;843;52.054;8.552;2023-03-01T12:48:09;6.33;;;4.73;;
1691;SDS011;843;52.054;8.552;2023-03-01T12:50:51;11.50;;;5.50;;
1691;SDS011;843;52.054;8.552;2023-03-01T12:53:21;8.40;;;5.70;;
1691;SDS011;843;52.054;8.552;2023-03-01T12:55:50;6.47;;;5.73;;
1691;SDS011;843;52.054;8.552;2023-03-01T12:58:21;7.30;;;5.00;;
1691;SDS011;843;52.054;8.552;2023-03-01T13:00:54;10.93;;;6.03;;
1691;SDS011;843;52.054;8.552;2023-03-01T13:03:46;6.70;;;5.00;;
1691;SDS011;843;52.054;8.552;2023-03-01T13:06:24;7.23;;;5.60;;
1691;SDS011;843;52.054;8.552;2023-03-01T13:08:54;10.63;;;6.10;;
1691;SDS011;843;52.054;8.552;2023-03-01T13:11:25;7.80;;;5.13;;
1691;SDS011;843;52.054;8.552;2023-03-01T13:13:52;9.03;;;5.03;;
1691;SDS011;843;52.054;8.552;2023-03-01T13:16:57;7.13;;;4.70;;
1691;SDS011;843;52.054;8.552;2023-03-01T13:19:25;8.30;;;5.23;;
1691;SDS011;843;52.054;8.552;2023-03-01T13:21:55;6.53;;;4.80;;
1691;SDS011;843;52.054;8.552;2023-03-01T13:24:25;7.63;;;5.40;;
1691;SDS011;843;52.054;8.552;2023-03-01T13:29:43;6.80;;;5.30;;
1691;SDS011;843;52.054;8.552;2023-03-01T13:32:19;8.00;;;5.53;;
1691;SDS011;843;52.054;8.552;2023-03-01T13:34:47;6.87;;;5.13;;
1691;SDS011;843;52.054;8.552;2023-03-01T13:43:25;8.63;;;5.80;;
1691;SDS011;843;52.054;8.552;2023-03-01T13:45:54;8.00;;;4.30;;
1691;SDS011;843;52.054;8.552;2023-03-01T13:48:22;9.73;;;5.33;;
1691;SDS011;843;52.054;8.552;2023-03-01T13:50:51;7.00;;;5.13;;
1691;SDS011;843;52.054;8.552;2023-03-01T13:53:23;7.30;;;4.67;;
1691;SDS011;843;52.054;8.552;2023-03-01T13:55:52;12.57;;;7.20;;
1691;SDS011;843;52.054;8.552;2023-03-01T13:58:23;9.17;;;5.30;;
1691;SDS011;843;52.054;8.552;2023-03-01T14:00:58;6.90;;;4.60;;
1691;SDS011;843;52.054;8.552;2023-03-01T14:03:26;7.20;;;4.63;;
1691;SDS011;843;52.054;8.552;2023-03-01T14:05:59;5.57;;;4.27;;
1691;SDS011;843;52.054;8.552;2023-03-01T14:08:29;8.63;;;5.13;;
1691;SDS011;843;52.054;8.552;2023-03-01T14:11:00;5.90;;;4.47;;
1691;SDS011;843;52.054;8.552;2023-03-01T14:13:43;6.63;;;4.37;;
1691;SDS011;843;52.054;8.552;2023-03-01T14:16:21;7.10;;;4.23;;
1691;SDS011;843;52.054;8.552;2023-03-01T14:18:55;6.47;;;4.00;;
1691;SDS011;843;52.054;8.552;2023-03-01T14:21:27;4.27;;;3.30;;
1691;SDS011;843;52.054;8.552;2023-03-01T14:23:57;9.70;;;4.27;;
1691;SDS011;843;52.054;8.552;2023-03-01T14:26:24;9.83;;;4.23;;
1691;SDS011;843;52.054;8.552;2023-03-01T14:28:50;8.30;;;4.70;;
1691;SDS011;843;52.054;8.552;2023-03-01T14:31:37;5.07;;;3.57;;
1691;SDS011;843;52.054;8.552;2023-03-01T14:34:05;6.57;;;3.77;;
1691;SDS011;843;52.054;8.552;2023-03-01T14:36:32;4.93;;;3.80;;
1691;SDS011;843;52.054;8.552;2023-03-01T14:39:02;7.00;;;4.30;;
1691;SDS011;843;52.054;8.552;2023-03-01T14:41:42;6.73;;;4.10;;
1691;SDS011;843;52.054;8.552;2023-03-01T14:44:12;7.37;;;3.50;;
1691;SDS011;843;52.054;8.552;2023-03-01T14:46:43;7.57;;;4.67;;
1691;SDS011;843;52.054;8.552;2023-03-01T14:49:12;4.70;;;3.47;;
1691;SDS011;843;52.054;8.552;2023-03-01T14:51:41;7.73;;;3.90;;
1691;SDS011;843;52.054;8.552;2023-03-01T14:54:20;5.53;;;4.00;;
1691;SDS011;843;52.054;8.552;2023-03-01T14:56:47;6.10;;;4.00;;
1691;SDS011;843;52.054;8.552;2023-03-01T14:59:14;4.83;;;3.77;;
1691;SDS011;843;52.054;8.552;2023-03-01T15:01:41;5.10;;;4.00;;
1691;SDS011;843;52.054;8.552;2023-03-01T15:04:10;3.57;;;2.73;;
1691;SDS011;843;52.054;8.552;2023-03-01T15:06:37;4.73;;;3.80;;
1691;SDS011;843;52.054;8.552;2023-03-01T15:09:04;7.07;;;4.87;;
1691;SDS011;843;52.054;8.552;2023-03-01T15:11:33;5.93;;;4.00;;
1691;SDS011;843;52.054;8.552;2023-03-01T15:14:02;7.47;;;5.07;;
1691;SDS011;843;52.054;8.552;2023-03-01T15:16:51;6.97;;;4.97;;
1691;SDS011;843;52.054;8.552;2023-03-01T15:19:18;7.60;;;5.13;;
1691;SDS011;843;52.054;8.552;2023-03-01T15:21:46;7.30;;;4.50;;
1691;SDS011;843;52.054;8.552;2023-03-01T15:24:16;4.73;;;3.90;;
1691;SDS011;843;52.054;8.552;2023-03-01T15:26:50;5.40;;;3.60;;
1691;SDS011;843;52.054;8.552;2023-03-01T15:29:20;5.80;;;4.60;;
1691;SDS011;843;52.054;8.552;2023-03-01T15:31:54;4.97;;;3.20;;
1691;SDS011;843;52.054;8.552;2023-03-01T15:34:23;3.80;;;3.07;;
1691;SDS011;843;52.054;8.552;2023-03-01T15:36:51;6.10;;;4.27;;
1691;SDS011;843;52.054;8.552;2023-03-01T15:39:32;6.30;;;4.13;;
1691;SDS011;843;52.054;8.552;2023-03-01T15:42:04;3.97;;;3.20;;
1691;SDS011;843;52.054;8.552;2023-03-01T15:44:32;5.00;;;3.80;;